This is the latest recevied weather packets stored in our database for station/object SV9TNF-1. If no packets are shown the sender has not sent any weather packets the latest 10 day(s).
| Time | Temp. | Humidity | Pressure | Rain* | Wind** | Luminosity | Snow |
|---|---|---|---|---|---|---|---|
| 1778181966 | 18.33° C | 74% | 1007.5 hPa | 0 mm | 2.68 m/s, 106° | - | - |
| 1778181666 | 18.33° C | 74% | 1007.5 hPa | 0 mm | 6.26 m/s, 344° | - | - |
| 1778181366 | 17.78° C | 74% | 1007.5 hPa | 0 mm | 4.92 m/s, 339° | - | - |
| 1778181066 | 17.78° C | 75% | 1007.5 hPa | 0 mm | 5.81 m/s, 346° | - | - |
| 1778180765 | 17.78° C | 75% | 1007.5 hPa | 0 mm | 4.92 m/s, 323° | - | - |
| 1778180466 | 18.33° C | 75% | 1007.5 hPa | 0 mm | 4.47 m/s, 340° | - | - |
| 1778180165 | 18.33° C | 74% | 1007.5 hPa | 0 mm | 2.68 m/s, 298° | - | - |
| 1778179865 | 18.33° C | 73% | 1007.5 hPa | 0 mm | 2.68 m/s, 143° | - | - |
| 1778179565 | 18.33° C | 72% | 1007.5 hPa | 0 mm | 3.13 m/s, 182° | - | - |
| 1778179265 | 18.33° C | 72% | 1007.5 hPa | 0 mm | 0.89 m/s, 129° | - | - |
| 1778178965 | 18.33° C | 71% | 1006.4 hPa | 0 mm | 2.24 m/s, 272° | - | - |
| 1778178665 | 18.89° C | 70% | 1006.4 hPa | 0 mm | 0.89 m/s, 149° | - | - |
| 1778178365 | 18.89° C | 69% | 1006.4 hPa | 0 mm | 1.79 m/s, 158° | - | - |
| 1778178065 | 19.44° C | 69% | 1006.1 hPa | 0 mm | 0 m/s | - | - |
| 1778177765 | 19.44° C | 68% | 1006.1 hPa | 0 mm | 0.89 m/s, 128° | - | - |
| 1778177464 | 18.89° C | 68% | 1006.1 hPa | 0 mm | 3.13 m/s, 116° | - | - |
| 1778177164 | 19.44° C | 68% | 1006.1 hPa | 0 mm | 1.34 m/s, 120° | - | - |
| 1778176864 | 19.44° C | 68% | 1006.1 hPa | 0 mm | 1.79 m/s, 131° | - | - |
| 1778176564 | 19.44° C | 68% | 1006.1 hPa | 0 mm | 1.79 m/s, 119° | - | - |
| 1778176264 | 19.44° C | 68% | 1006.1 hPa | 0 mm | 1.34 m/s, 125° | - | - |
| 1778175964 | 19.44° C | 69% | 1006.4 hPa | 0 mm | 0 m/s | - | - |
| 1778175665 | 19.44° C | 70% | 1006.4 hPa | 0 mm | 0 m/s | - | - |
| 1778175364 | 19.44° C | 70% | 1006.4 hPa | 0 mm | 0 m/s | - | - |
| 1778175064 | 19.44° C | 71% | 1006.4 hPa | 0 mm | 0 m/s | - | - |
| 1778174764 | 19.44° C | 71% | 1006.4 hPa | 0 mm | 0 m/s | - | - |
* Rain latest hour (hover to see other rain measurements)
** Current wind speed in m/s (hover to see current wind gust speed)